Jaume II — EAES — position and weather

sailwx.info

Track history (hours):
 
Tides and Currents Weather Stations Pressure Air Temp Water Temp Dewpoint Dewpoint Depression Visibility Wind Speed Wind Dir Waves Ship Positions

Jaume II

Last reported at 2017-Nov-23 09:00 UTC. Time now 2017-Nov-23 09:26 UTC.
Position N 38°57' E 001°37'.

; draft 3.2 m.

Type: Ship. MMSI: 224195530.

Date/timePositionNaut miles runAvg speedWind from/ knotsBaromVisibWave heightAir tempDewpointWater temp
2017-Nov-23 09:00N 38°57' E 001°37'3930.4
2017-Nov-23 07:42N 39°19' E 002°19'630.8
2017-Nov-23 07:30N 39°22' E 002°25'1428.6
2017-Nov-23 07:00N 39°33' E 002°38'1 1.6
2017-Nov-23 06:31N 39°33' E 002°37'0 0.0
2017-Nov-23 06:01N 39°33' E 002°37'0 0.0
2017-Nov-23 05:30N 39°33' E 002°37'0 0.0
2017-Nov-23 05:01N 39°33' E 002°37'0 0.0
2017-Nov-23 04:30N 39°33' E 002°37'0 0.0
2017-Nov-23 04:00N 39°33' E 002°37'0 0.0
2017-Nov-23 03:31N 39°33' E 002°37'0 0.0
2017-Nov-23 03:00N 39°33' E 002°37'0 0.0
2017-Nov-23 02:30N 39°33' E 002°37'0 0.0
2017-Nov-23 02:00N 39°33' E 002°37'0 0.0
2017-Nov-23 01:30N 39°33' E 002°37'0 0.0
2017-Nov-23 01:00N 39°33' E 002°37'0 0.0
2017-Nov-23 00:31N 39°33' E 002°37'0 0.0
2017-Nov-23 00:01N 39°33' E 002°37'0 0.0
2017-Nov-22 23:30N 39°33' E 002°37'0 0.0
2017-Nov-22 23:00N 39°33' E 002°37'0 0.0
2017-Nov-22 22:30N 39°33' E 002°37'0 0.0
2017-Nov-22 22:00N 39°33' E 002°37'0 0.0
2017-Nov-22 21:31N 39°33' E 002°37'1 1.0
2017-Nov-22 21:00N 39°33' E 002°38'1428.0
2017-Nov-22 20:30N 39°23' E 002°26'4032.9
2017-Nov-22 19:16N 39°00' E 001°43'  
2017-Nov-19 11:26N 38°49' E 001°08'1022.9
2017-Nov-19 11:00N 38°48' E 001°21'814.8
2017-Nov-19 10:29N 38°54' E 001°27'0 0.3
2017-Nov-19 09:57N 38°54' E 001°27'818.7
2017-Nov-19 09:30N 38°57' E 001°37'3824.1
2017-Nov-19 07:55N 39°18' E 002°18'1024.8
2017-Nov-19 07:30N 39°24' E 002°29'1223.2
2017-Nov-19 07:00N 39°33' E 002°39'1 1.6
2017-Nov-19 06:30N 39°33' E 002°37'0 0.0
2017-Nov-19 06:00N 39°33' E 002°37'0 0.0
2017-Nov-19 05:30N 39°33' E 002°37'0 0.0
2017-Nov-19 05:00N 39°33' E 002°37'0 0.0
2017-Nov-19 04:30N 39°33' E 002°37'0 0.0
2017-Nov-19 04:00N 39°33' E 002°37'0 0.0
2017-Nov-19 03:30N 39°33' E 002°37'0 0.0
2017-Nov-19 03:00N 39°33' E 002°37'0 0.0
2017-Nov-19 02:30N 39°33' E 002°37'0 0.0
2017-Nov-19 02:00N 39°33' E 002°37'0 0.0
2017-Nov-19 01:30N 39°33' E 002°37'0 0.0
2017-Nov-19 01:00N 39°33' E 002°37'0 0.0
2017-Nov-19 00:30N 39°33' E 002°37'0 0.0
2017-Nov-19 00:00N 39°33' E 002°37'0 0.0
2017-Nov-18 23:30N 39°33' E 002°37'0 0.0
2017-Nov-18 23:00N 39°33' E 002°37'0 0.0
2017-Nov-18 22:30N 39°33' E 002°37'0 0.1
2017-Nov-18 22:00N 39°33' E 002°38'917.5
2017-Nov-18 21:30N 39°26' E 002°32'4525.6
2017-Nov-18 19:46N 39°01' E 001°44'725.6
2017-Nov-18 19:30N 38°57' E 001°37'812.7
2017-Nov-18 18:52N 38°54' E 001°27'615.5
2017-Nov-18 18:29N 38°48' E 001°25'10 1.3
2017-Nov-18 10:49N 38°49' E 001°12'824.8
2017-Nov-18 10:30N 38°49' E 001°22'711.4
2017-Nov-18 09:53N 38°54' E 001°27'2 4.7
2017-Nov-18 09:30N 38°54' E 001°29'1225.4
2017-Nov-18 09:01N 39°00' E 001°43'3525.3
2017-Nov-18 07:39N 39°20' E 002°20'533.5
2017-Nov-18 07:30N 39°22' E 002°25'1529.6
2017-Nov-18 07:00N 39°33' E 002°38'1 1.6
2017-Nov-18 06:30N 39°33' E 002°37'0 0.0
2017-Nov-18 06:00N 39°33' E 002°37'0 0.0
2017-Nov-18 05:30N 39°33' E 002°37'0 0.0
2017-Nov-18 05:00N 39°33' E 002°37'0 0.0
2017-Nov-18 04:30N 39°33' E 002°37'0 0.0
2017-Nov-18 04:00N 39°33' E 002°37'0 0.0
2017-Nov-18 03:30N 39°33' E 002°37'0 0.0
2017-Nov-18 03:00N 39°33' E 002°37'0 0.0
2017-Nov-18 02:30N 39°33' E 002°37'0 0.0
2017-Nov-18 02:00N 39°33' E 002°37'0 0.0
2017-Nov-18 01:30N 39°33' E 002°37'0 0.0
2017-Nov-18 01:00N 39°33' E 002°37'0 0.0
2017-Nov-18 00:30N 39°33' E 002°37'0 0.0
2017-Nov-18 00:00N 39°33' E 002°37'0 0.0
2017-Nov-17 23:30N 39°33' E 002°37'0 0.0
2017-Nov-17 23:00N 39°33' E 002°37'0 0.0
2017-Nov-17 22:30N 39°33' E 002°37'0 0.0
2017-Nov-17 22:00N 39°33' E 002°37'0 0.0
2017-Nov-17 21:30N 39°33' E 002°37'1 1.7
2017-Nov-17 21:00N 39°33' E 002°38'5632.0
2017-Nov-17 19:15N 38°59' E 001°40'832.4
2017-Nov-17 19:00N 38°54' E 001°32'3 6.0
2017-Nov-17 18:25N 38°54' E 001°27'7 1.0
2017-Nov-17 10:46N 38°48' E 001°22'619.0
2017-Nov-17 10:27N 38°53' E 001°27'1 1.8
2017-Nov-17 09:38N 38°54' E 001°28'324.6
2017-Nov-17 09:30N 38°55' E 001°33'4424.9
2017-Nov-17 07:44N 39°19' E 002°19'625.6
2017-Nov-17 07:30N 39°23' E 002°26'1326.9
2017-Nov-17 07:01N 39°32' E 002°38'1 1.9
2017-Nov-17 06:30N 39°33' E 002°37'0 0.0
2017-Nov-17 06:00N 39°33' E 002°37'0 0.0
2017-Nov-17 05:30N 39°33' E 002°37'0 0.0
2017-Nov-17 05:00N 39°33' E 002°37'0 0.0
2017-Nov-17 04:30N 39°33' E 002°37'0 0.0
2017-Nov-17 04:00N 39°33' E 002°37'0 0.0
2017-Nov-17 03:30N 39°33' E 002°37'0 0.0
2017-Nov-17 03:00N 39°33' E 002°37'0 0.0
2017-Nov-17 02:30N 39°33' E 002°37'0 0.0
2017-Nov-17 02:00N 39°33' E 002°37'0 0.0
2017-Nov-17 01:30N 39°33' E 002°37'0 0.0
2017-Nov-17 01:00N 39°33' E 002°37'0 0.0
2017-Nov-17 00:30N 39°33' E 002°37'0 0.0
2017-Nov-17 00:00N 39°33' E 002°37'0 0.0
2017-Nov-16 23:30N 39°33' E 002°37'2 4.1
2017-Nov-16 23:00N 39°31' E 002°37'1020.0
2017-Nov-16 22:30N 39°24' E 002°28'4020.4
2017-Nov-16 20:32N 39°01' E 001°45'120.0
2017-Nov-16 20:30N 39°01' E 001°44'1020.2
2017-Nov-16 20:00N 38°55' E 001°33'5 9.0
2017-Nov-16 19:27N 38°54' E 001°27'8 1.0
2017-Nov-16 10:46N 38°49' E 001°19'519.2
2017-Nov-16 10:29N 38°50' E 001°26'5 7.9
2017-Nov-16 09:52N 38°54' E 001°27'2 5.0
2017-Nov-16 09:30N 38°54' E 001°29'1224.2
2017-Nov-16 09:00N 39°00' E 001°43'3526.0
2017-Nov-16 07:39N 39°20' E 002°20'532.7
2017-Nov-16 07:30N 39°23' E 002°26'1429.0
2017-Nov-16 07:00N 39°33' E 002°39'1 1.7
2017-Nov-16 06:30N 39°33' E 002°37'0 0.0
2017-Nov-16 06:00N 39°33' E 002°37'0 0.0
2017-Nov-16 05:30N 39°33' E 002°37'0 0.0
2017-Nov-16 05:00N 39°33' E 002°37'0 0.0
2017-Nov-16 04:30N 39°33' E 002°37'0 0.0
2017-Nov-16 04:00N 39°33' E 002°37'0 0.0
2017-Nov-16 03:30N 39°33' E 002°37'0 0.0
2017-Nov-16 03:00N 39°33' E 002°37'0 0.0
2017-Nov-16 02:30N 39°33' E 002°37'0 0.0
2017-Nov-16 02:00N 39°33' E 002°37'0 0.0
2017-Nov-16 01:30N 39°33' E 002°37'0 0.0
2017-Nov-16 01:00N 39°33' E 002°37'0 0.0
2017-Nov-16 00:30N 39°33' E 002°37'0 0.0
2017-Nov-16 00:00N 39°33' E 002°37'0 0.0
2017-Nov-15 23:30N 39°33' E 002°37'0 0.0
2017-Nov-15 23:00N 39°33' E 002°37'0 0.0
2017-Nov-15 22:30N 39°33' E 002°37'0 0.0
2017-Nov-15 22:00N 39°33' E 002°37'0 0.0
2017-Nov-15 21:30N 39°33' E 002°37'4 7.2
2017-Nov-15 21:00N 39°30' E 002°36'5132.3
2017-Nov-15 19:25N 38°60' E 001°42'1330.8
2017-Nov-15 19:00N 38°54' E 001°27'0 0.8
2017-Nov-15 18:29N 38°54' E 001°27'613.2
2017-Nov-15 18:00N 38°48' E 001°24'5 0.7
2017-Nov-15 10:34N 38°49' E 001°18'329.8
2017-Nov-15 10:29N 38°48' E 001°21'816.0
2017-Nov-15 10:00N 38°54' E 001°27'0 0.1
2017-Nov-15 09:23N 38°54' E 001°27'922.1
2017-Nov-15 09:00N 38°58' E 001°37'3930.6
2017-Nov-15 07:43N 39°19' E 002°19'731.6
2017-Nov-15 07:30N 39°23' E 002°27'1326.0
2017-Nov-15 07:00N 39°33' E 002°38'1 1.4
2017-Nov-15 06:30N 39°33' E 002°37'0 0.0
2017-Nov-15 06:00N 39°33' E 002°37'0 0.0
2017-Nov-15 05:30N 39°33' E 002°37'0 0.0
2017-Nov-15 05:00N 39°33' E 002°37'0 0.0
2017-Nov-15 04:30N 39°33' E 002°37'0 0.0
2017-Nov-15 04:00N 39°33' E 002°37'0 0.0
2017-Nov-15 03:30N 39°33' E 002°37'0 0.0
2017-Nov-15 03:00N 39°33' E 002°37'0 0.0
2017-Nov-15 02:30N 39°33' E 002°37'0 0.0
2017-Nov-15 02:00N 39°33' E 002°37'0 0.0
2017-Nov-15 01:30N 39°33' E 002°37'0 0.0
2017-Nov-15 01:00N 39°33' E 002°37'0 0.0
2017-Nov-15 00:30N 39°33' E 002°37'0 0.0
2017-Nov-15 00:00N 39°33' E 002°37'0 0.0
2017-Nov-14 23:30N 39°33' E 002°37'0 0.0
2017-Nov-14 23:00N 39°33' E 002°37'0 0.0
2017-Nov-14 22:30N 39°33' E 002°37'0 0.0
2017-Nov-14 22:00N 39°33' E 002°37'0 0.0
2017-Nov-14 21:30N 39°33' E 002°37'0 0.0
2017-Nov-14 21:00N 39°33' E 002°37'0 0.0
2017-Nov-14 20:30N 39°33' E 002°37'0 0.0
2017-Nov-14 20:00N 39°33' E 002°37'0 0.0
2017-Nov-14 19:30N 39°33' E 002°37'0 0.0
2017-Nov-14 19:00N 39°33' E 002°37'0 0.0
2017-Nov-14 18:30N 39°33' E 002°37'0 0.0
2017-Nov-14 18:00N 39°33' E 002°37'0 0.0
2017-Nov-14 17:30N 39°33' E 002°37'0 0.0
2017-Nov-14 17:00N 39°33' E 002°37'0 0.0
2017-Nov-14 16:30N 39°33' E 002°37'0 0.0
2017-Nov-14 16:00N 39°33' E 002°37'0 0.0
2017-Nov-14 15:30N 39°33' E 002°37'0 0.0
2017-Nov-14 15:00N 39°33' E 002°37'0 0.0
2017-Nov-14 14:30N 39°33' E 002°37'0 0.0
2017-Nov-14 14:00N 39°33' E 002°37'0 0.0
2017-Nov-14 13:30N 39°33' E 002°37'0 0.0
2017-Nov-14 13:00N 39°33' E 002°37'0 0.0
2017-Nov-14 12:30N 39°33' E 002°37'0 0.0
2017-Nov-14 12:00N 39°33' E 002°37'0 0.0
2017-Nov-14 11:30N 39°33' E 002°37'0 0.0
2017-Nov-14 11:00N 39°33' E 002°37'0 0.0
2017-Nov-14 10:30N 39°33' E 002°37'0 0.0
2017-Nov-14 10:00N 39°33' E 002°37'0 0.0
2017-Nov-14 09:30N 39°33' E 002°37'0 0.0
2017-Nov-14 09:00N 39°33' E 002°37'0 0.0
2017-Nov-14 08:30N 39°33' E 002°37'0 0.0
2017-Nov-14 08:00N 39°33' E 002°37'0 0.0
2017-Nov-14 07:30N 39°33' E 002°37'0 0.0
2017-Nov-14 07:00N 39°33' E 002°37'0 0.0
2017-Nov-14 06:30N 39°33' E 002°37'0 0.0
2017-Nov-14 06:00N 39°33' E 002°37'0 0.0
2017-Nov-14 05:30N 39°33' E 002°37'0 0.0
2017-Nov-14 05:00N 39°33' E 002°37'0 0.0
2017-Nov-14 04:30N 39°33' E 002°37'0 0.0
2017-Nov-14 04:00N 39°33' E 002°37'0 0.0
2017-Nov-14 03:30N 39°33' E 002°37'0 0.0
2017-Nov-14 03:00N 39°33' E 002°37'0 0.0
2017-Nov-14 02:30N 39°33' E 002°37'0 0.0
2017-Nov-14 02:00N 39°33' E 002°37'0 0.0
2017-Nov-14 01:30N 39°33' E 002°37'0 0.0
2017-Nov-14 01:00N 39°33' E 002°37'0 0.0
2017-Nov-14 00:30N 39°33' E 002°37'0 0.0
2017-Nov-14 00:00N 39°33' E 002°37'0 0.0
2017-Nov-13 23:30N 39°33' E 002°37'0 0.0
2017-Nov-13 23:00N 39°33' E 002°37'0 0.0
2017-Nov-13 22:30N 39°33' E 002°37'0 0.0
2017-Nov-13 22:00N 39°33' E 002°37'  
Track history (hours):
 
Tides and Currents Weather Stations Pressure Air Temp Water Temp Dewpoint Dewpoint Depression Visibility Wind Speed Wind Dir Waves Ship Positions

Jaume II

Last reported at 2017-Nov-23 09:00 UTC. Time now 2017-Nov-23 09:26 UTC.
Position N 38°57' E 001°37'.

; draft 3.2 m.

Type: Ship. MMSI: 224195530.

Date/timePositionNaut miles runAvg speedWind from/ knotsBaromVisibWave heightAir tempDewpointWater temp
2017-Nov-23 09:00N 38°57' E 001°37'3930.4
2017-Nov-23 07:42N 39°19' E 002°19'630.8
2017-Nov-23 07:30N 39°22' E 002°25'1428.6
2017-Nov-23 07:00N 39°33' E 002°38'1 1.6
2017-Nov-23 06:31N 39°33' E 002°37'0 0.0
2017-Nov-23 06:01N 39°33' E 002°37'0 0.0
2017-Nov-23 05:30N 39°33' E 002°37'0 0.0
2017-Nov-23 05:01N 39°33' E 002°37'0 0.0
2017-Nov-23 04:30N 39°33' E 002°37'0 0.0
2017-Nov-23 04:00N 39°33' E 002°37'0 0.0
2017-Nov-23 03:31N 39°33' E 002°37'0 0.0
2017-Nov-23 03:00N 39°33' E 002°37'0 0.0
2017-Nov-23 02:30N 39°33' E 002°37'0 0.0
2017-Nov-23 02:00N 39°33' E 002°37'0 0.0
2017-Nov-23 01:30N 39°33' E 002°37'0 0.0
2017-Nov-23 01:00N 39°33' E 002°37'0 0.0
2017-Nov-23 00:31N 39°33' E 002°37'0 0.0
2017-Nov-23 00:01N 39°33' E 002°37'0 0.0
2017-Nov-22 23:30N 39°33' E 002°37'0 0.0
2017-Nov-22 23:00N 39°33' E 002°37'0 0.0
2017-Nov-22 22:30N 39°33' E 002°37'0 0.0
2017-Nov-22 22:00N 39°33' E 002°37'0 0.0
2017-Nov-22 21:31N 39°33' E 002°37'1 1.0
2017-Nov-22 21:00N 39°33' E 002°38'1428.0
2017-Nov-22 20:30N 39°23' E 002°26'4032.9
2017-Nov-22 19:16N 39°00' E 001°43'  
2017-Nov-19 11:26N 38°49' E 001°08'1022.9
2017-Nov-19 11:00N 38°48' E 001°21'814.8
2017-Nov-19 10:29N 38°54' E 001°27'0 0.3
2017-Nov-19 09:57N 38°54' E 001°27'818.7
2017-Nov-19 09:30N 38°57' E 001°37'3824.1
2017-Nov-19 07:55N 39°18' E 002°18'1024.8
2017-Nov-19 07:30N 39°24' E 002°29'1223.2
2017-Nov-19 07:00N 39°33' E 002°39'1 1.6
2017-Nov-19 06:30N 39°33' E 002°37'0 0.0
2017-Nov-19 06:00N 39°33' E 002°37'0 0.0
2017-Nov-19 05:30N 39°33' E 002°37'0 0.0
2017-Nov-19 05:00N 39°33' E 002°37'0 0.0
2017-Nov-19 04:30N 39°33' E 002°37'0 0.0
2017-Nov-19 04:00N 39°33' E 002°37'0 0.0
2017-Nov-19 03:30N 39°33' E 002°37'0 0.0
2017-Nov-19 03:00N 39°33' E 002°37'0 0.0
2017-Nov-19 02:30N 39°33' E 002°37'0 0.0
2017-Nov-19 02:00N 39°33' E 002°37'0 0.0
2017-Nov-19 01:30N 39°33' E 002°37'0 0.0
2017-Nov-19 01:00N 39°33' E 002°37'0 0.0
2017-Nov-19 00:30N 39°33' E 002°37'0 0.0
2017-Nov-19 00:00N 39°33' E 002°37'0 0.0
2017-Nov-18 23:30N 39°33' E 002°37'0 0.0
2017-Nov-18 23:00N 39°33' E 002°37'0 0.0
2017-Nov-18 22:30N 39°33' E 002°37'0 0.1
2017-Nov-18 22:00N 39°33' E 002°38'917.5
2017-Nov-18 21:30N 39°26' E 002°32'4525.6
2017-Nov-18 19:46N 39°01' E 001°44'725.6
2017-Nov-18 19:30N 38°57' E 001°37'812.7
2017-Nov-18 18:52N 38°54' E 001°27'615.5
2017-Nov-18 18:29N 38°48' E 001°25'10 1.3
2017-Nov-18 10:49N 38°49' E 001°12'824.8
2017-Nov-18 10:30N 38°49' E 001°22'711.4
2017-Nov-18 09:53N 38°54' E 001°27'2 4.7
2017-Nov-18 09:30N 38°54' E 001°29'1225.4
2017-Nov-18 09:01N 39°00' E 001°43'3525.3
2017-Nov-18 07:39N 39°20' E 002°20'533.5
2017-Nov-18 07:30N 39°22' E 002°25'1529.6
2017-Nov-18 07:00N 39°33' E 002°38'1 1.6
2017-Nov-18 06:30N 39°33' E 002°37'0 0.0
2017-Nov-18 06:00N 39°33' E 002°37'0 0.0
2017-Nov-18 05:30N 39°33' E 002°37'0 0.0
2017-Nov-18 05:00N 39°33' E 002°37'0 0.0
2017-Nov-18 04:30N 39°33' E 002°37'0 0.0
2017-Nov-18 04:00N 39°33' E 002°37'0 0.0
2017-Nov-18 03:30N 39°33' E 002°37'0 0.0
2017-Nov-18 03:00N 39°33' E 002°37'0 0.0
2017-Nov-18 02:30N 39°33' E 002°37'0 0.0
2017-Nov-18 02:00N 39°33' E 002°37'0 0.0
2017-Nov-18 01:30N 39°33' E 002°37'0 0.0
2017-Nov-18 01:00N 39°33' E 002°37'0 0.0
2017-Nov-18 00:30N 39°33' E 002°37'0 0.0
2017-Nov-18 00:00N 39°33' E 002°37'0 0.0
2017-Nov-17 23:30N 39°33' E 002°37'0 0.0
2017-Nov-17 23:00N 39°33' E 002°37'0 0.0
2017-Nov-17 22:30N 39°33' E 002°37'0 0.0
2017-Nov-17 22:00N 39°33' E 002°37'0 0.0
2017-Nov-17 21:30N 39°33' E 002°37'1 1.7
2017-Nov-17 21:00N 39°33' E 002°38'5632.0
2017-Nov-17 19:15N 38°59' E 001°40'832.4
2017-Nov-17 19:00N 38°54' E 001°32'3 6.0
2017-Nov-17 18:25N 38°54' E 001°27'7 1.0
2017-Nov-17 10:46N 38°48' E 001°22'619.0
2017-Nov-17 10:27N 38°53' E 001°27'1 1.8
2017-Nov-17 09:38N 38°54' E 001°28'324.6
2017-Nov-17 09:30N 38°55' E 001°33'4424.9
2017-Nov-17 07:44N 39°19' E 002°19'625.6
2017-Nov-17 07:30N 39°23' E 002°26'1326.9
2017-Nov-17 07:01N 39°32' E 002°38'1 1.9
2017-Nov-17 06:30N 39°33' E 002°37'0 0.0
2017-Nov-17 06:00N 39°33' E 002°37'0 0.0
2017-Nov-17 05:30N 39°33' E 002°37'0 0.0
2017-Nov-17 05:00N 39°33' E 002°37'0 0.0
2017-Nov-17 04:30N 39°33' E 002°37'0 0.0
2017-Nov-17 04:00N 39°33' E 002°37'0 0.0
2017-Nov-17 03:30N 39°33' E 002°37'0 0.0
2017-Nov-17 03:00N 39°33' E 002°37'0 0.0
2017-Nov-17 02:30N 39°33' E 002°37'0 0.0
2017-Nov-17 02:00N 39°33' E 002°37'0 0.0
2017-Nov-17 01:30N 39°33' E 002°37'0 0.0
2017-Nov-17 01:00N 39°33' E 002°37'0 0.0
2017-Nov-17 00:30N 39°33' E 002°37'0 0.0
2017-Nov-17 00:00N 39°33' E 002°37'0 0.0
2017-Nov-16 23:30N 39°33' E 002°37'2 4.1
2017-Nov-16 23:00N 39°31' E 002°37'1020.0
2017-Nov-16 22:30N 39°24' E 002°28'4020.4
2017-Nov-16 20:32N 39°01' E 001°45'120.0
2017-Nov-16 20:30N 39°01' E 001°44'1020.2
2017-Nov-16 20:00N 38°55' E 001°33'5 9.0
2017-Nov-16 19:27N 38°54' E 001°27'8 1.0
2017-Nov-16 10:46N 38°49' E 001°19'519.2
2017-Nov-16 10:29N 38°50' E 001°26'5 7.9
2017-Nov-16 09:52N 38°54' E 001°27'2 5.0
2017-Nov-16 09:30N 38°54' E 001°29'1224.2
2017-Nov-16 09:00N 39°00' E 001°43'3526.0
2017-Nov-16 07:39N 39°20' E 002°20'532.7
2017-Nov-16 07:30N 39°23' E 002°26'1429.0
2017-Nov-16 07:00N 39°33' E 002°39'1 1.7
2017-Nov-16 06:30N 39°33' E 002°37'0 0.0
2017-Nov-16 06:00N 39°33' E 002°37'0 0.0
2017-Nov-16 05:30N 39°33' E 002°37'0 0.0
2017-Nov-16 05:00N 39°33' E 002°37'0 0.0
2017-Nov-16 04:30N 39°33' E 002°37'0 0.0
2017-Nov-16 04:00N 39°33' E 002°37'0 0.0
2017-Nov-16 03:30N 39°33' E 002°37'0 0.0
2017-Nov-16 03:00N 39°33' E 002°37'0 0.0
2017-Nov-16 02:30N 39°33' E 002°37'0 0.0
2017-Nov-16 02:00N 39°33' E 002°37'0 0.0
2017-Nov-16 01:30N 39°33' E 002°37'0 0.0
2017-Nov-16 01:00N 39°33' E 002°37'0 0.0
2017-Nov-16 00:30N 39°33' E 002°37'0 0.0
2017-Nov-16 00:00N 39°33' E 002°37'0 0.0
2017-Nov-15 23:30N 39°33' E 002°37'0 0.0
2017-Nov-15 23:00N 39°33' E 002°37'0 0.0
2017-Nov-15 22:30N 39°33' E 002°37'0 0.0
2017-Nov-15 22:00N 39°33' E 002°37'0 0.0
2017-Nov-15 21:30N 39°33' E 002°37'4 7.2
2017-Nov-15 21:00N 39°30' E 002°36'5132.3
2017-Nov-15 19:25N 38°60' E 001°42'1330.8
2017-Nov-15 19:00N 38°54' E 001°27'0 0.8
2017-Nov-15 18:29N 38°54' E 001°27'613.2
2017-Nov-15 18:00N 38°48' E 001°24'5 0.7
2017-Nov-15 10:34N 38°49' E 001°18'329.8
2017-Nov-15 10:29N 38°48' E 001°21'816.0
2017-Nov-15 10:00N 38°54' E 001°27'0 0.1
2017-Nov-15 09:23N 38°54' E 001°27'922.1
2017-Nov-15 09:00N 38°58' E 001°37'3930.6
2017-Nov-15 07:43N 39°19' E 002°19'731.6
2017-Nov-15 07:30N 39°23' E 002°27'1326.0
2017-Nov-15 07:00N 39°33' E 002°38'1 1.4
2017-Nov-15 06:30N 39°33' E 002°37'0 0.0
2017-Nov-15 06:00N 39°33' E 002°37'0 0.0
2017-Nov-15 05:30N 39°33' E 002°37'0 0.0
2017-Nov-15 05:00N 39°33' E 002°37'0 0.0
2017-Nov-15 04:30N 39°33' E 002°37'0 0.0
2017-Nov-15 04:00N 39°33' E 002°37'0 0.0
2017-Nov-15 03:30N 39°33' E 002°37'0 0.0
2017-Nov-15 03:00N 39°33' E 002°37'0 0.0
2017-Nov-15 02:30N 39°33' E 002°37'0 0.0
2017-Nov-15 02:00N 39°33' E 002°37'0 0.0
2017-Nov-15 01:30N 39°33' E 002°37'0 0.0
2017-Nov-15 01:00N 39°33' E 002°37'0 0.0
2017-Nov-15 00:30N 39°33' E 002°37'0 0.0
2017-Nov-15 00:00N 39°33' E 002°37'0 0.0
2017-Nov-14 23:30N 39°33' E 002°37'0 0.0
2017-Nov-14 23:00N 39°33' E 002°37'0 0.0
2017-Nov-14 22:30N 39°33' E 002°37'0 0.0
2017-Nov-14 22:00N 39°33' E 002°37'0 0.0
2017-Nov-14 21:30N 39°33' E 002°37'0 0.0
2017-Nov-14 21:00N 39°33' E 002°37'0 0.0
2017-Nov-14 20:30N 39°33' E 002°37'0 0.0
2017-Nov-14 20:00N 39°33' E 002°37'0 0.0
2017-Nov-14 19:30N 39°33' E 002°37'0 0.0
2017-Nov-14 19:00N 39°33' E 002°37'0 0.0
2017-Nov-14 18:30N 39°33' E 002°37'0 0.0
2017-Nov-14 18:00N 39°33' E 002°37'0 0.0
2017-Nov-14 17:30N 39°33' E 002°37'0 0.0
2017-Nov-14 17:00N 39°33' E 002°37'0 0.0
2017-Nov-14 16:30N 39°33' E 002°37'0 0.0
2017-Nov-14 16:00N 39°33' E 002°37'0 0.0
2017-Nov-14 15:30N 39°33' E 002°37'0 0.0
2017-Nov-14 15:00N 39°33' E 002°37'0 0.0
2017-Nov-14 14:30N 39°33' E 002°37'0 0.0
2017-Nov-14 14:00N 39°33' E 002°37'0 0.0
2017-Nov-14 13:30N 39°33' E 002°37'0 0.0
2017-Nov-14 13:00N 39°33' E 002°37'0 0.0
2017-Nov-14 12:30N 39°33' E 002°37'0 0.0
2017-Nov-14 12:00N 39°33' E 002°37'0 0.0
2017-Nov-14 11:30N 39°33' E 002°37'0 0.0
2017-Nov-14 11:00N 39°33' E 002°37'0 0.0
2017-Nov-14 10:30N 39°33' E 002°37'0 0.0
2017-Nov-14 10:00N 39°33' E 002°37'0 0.0
2017-Nov-14 09:30N 39°33' E 002°37'0 0.0
2017-Nov-14 09:00N 39°33' E 002°37'0 0.0
2017-Nov-14 08:30N 39°33' E 002°37'0 0.0
2017-Nov-14 08:00N 39°33' E 002°37'0 0.0
2017-Nov-14 07:30N 39°33' E 002°37'0 0.0
2017-Nov-14 07:00N 39°33' E 002°37'0 0.0
2017-Nov-14 06:30N 39°33' E 002°37'0 0.0
2017-Nov-14 06:00N 39°33' E 002°37'0 0.0
2017-Nov-14 05:30N 39°33' E 002°37'0 0.0
2017-Nov-14 05:00N 39°33' E 002°37'0 0.0
2017-Nov-14 04:30N 39°33' E 002°37'0 0.0
2017-Nov-14 04:00N 39°33' E 002°37'0 0.0
2017-Nov-14 03:30N 39°33' E 002°37'0 0.0
2017-Nov-14 03:00N 39°33' E 002°37'0 0.0
2017-Nov-14 02:30N 39°33' E 002°37'0 0.0
2017-Nov-14 02:00N 39°33' E 002°37'0 0.0
2017-Nov-14 01:30N 39°33' E 002°37'0 0.0
2017-Nov-14 01:00N 39°33' E 002°37'0 0.0
2017-Nov-14 00:30N 39°33' E 002°37'0 0.0
2017-Nov-14 00:00N 39°33' E 002°37'0 0.0
2017-Nov-13 23:30N 39°33' E 002°37'0 0.0
2017-Nov-13 23:00N 39°33' E 002°37'0 0.0
2017-Nov-13 22:30N 39°33' E 002°37'0 0.0
2017-Nov-13 22:00N 39°33' E 002°37'  

Dump ship's entire track history